Time;durP1;ratioP1;P1;durP2;ratioP2;P2;SDS_P1;SDS_P2;PMS_P1;PMS_P2;Temp;Humidity;BMP_temperature;BMP_pressure;BME280_temperature;BME280_humidity;BME280_pressure;Samples;Min_cycle;Max_cycle;Signal;HPM_P1;HPM_P2
2021/03/28 00:02:23;;;;;;;8.27;3.00;;;6.40;99.90;;;;;;5049363;28;20644;-87
2021/03/28 00:04:53;;;;;;;6.87;2.87;;;6.40;99.90;;;;;;5046704;28;20614;-86
2021/03/28 00:07:21;;;;;;;7.33;3.13;;;6.20;99.90;;;;;;5048065;28;20657;-87
2021/03/28 00:09:53;;;;;;;7.37;2.77;;;6.20;99.90;;;;;;5043169;28;21039;-87
2021/03/28 00:12:29;;;;;;;4.17;2.57;;;6.10;99.90;;;;;;5041333;28;20617;-87
2021/03/28 00:15:01;;;;;;;7.70;3.33;;;6.00;99.90;;;;;;5047438;28;21028;-87
2021/03/28 00:17:31;;;;;;;8.87;4.03;;;6.00;99.90;;;;;;5046983;28;21045;-87
2021/03/28 00:20:06;;;;;;;5.03;2.90;;;6.00;99.90;;;;;;5044503;28;20658;-85
2021/03/28 00:22:38;;;;;;;12.83;7.43;;;5.90;99.90;;;;;;5043078;28;20621;-86
2021/03/28 00:25:12;;;;;;;7.37;4.23;;;5.90;99.90;;;;;;5045575;28;20617;-87
2021/03/28 00:27:43;;;;;;;14.60;8.53;;;5.80;99.90;;;;;;5046375;28;20654;-86
2021/03/28 00:30:25;;;;;;;10.33;6.00;;;5.80;99.90;;;;;;5048956;28;20646;-87
2021/03/28 00:32:57;;;;;;;10.30;4.57;;;5.80;99.90;;;;;;5052554;28;21200;-86
2021/03/28 00:35:29;;;;;;;6.90;4.00;;;5.70;99.90;;;;;;5042567;28;20633;-85
2021/03/28 00:38:08;;;;;;;6.90;3.37;;;5.60;99.90;;;;;;5044917;28;20618;-88
2021/03/28 00:40:35;;;;;;;6.33;2.70;;;5.50;99.90;;;;;;5046967;28;20703;-86
2021/03/28 00:43:12;;;;;;;9.70;3.63;;;5.50;99.90;;;;;;5049701;28;20638;-87
2021/03/28 00:45:53;;;;;;;9.97;3.03;;;5.50;99.90;;;;;;5048795;28;21120;-87
2021/03/28 00:48:23;;;;;;;8.40;3.80;;;5.50;99.90;;;;;;5048838;28;21375;-87
2021/03/28 00:50:57;;;;;;;7.13;3.27;;;5.50;99.90;;;;;;5042800;28;20657;-87
2021/03/28 00:53:34;;;;;;;9.87;4.57;;;5.40;99.90;;;;;;5036158;28;20627;-87
2021/03/28 00:56:04;;;;;;;4.87;2.90;;;5.40;99.90;;;;;;5041755;28;20649;-87
2021/03/28 00:58:45;;;;;;;4.63;2.80;;;5.30;99.90;;;;;;5044794;28;20624;-87
2021/03/28 01:01:33;;;;;;;5.00;2.80;;;5.50;99.90;;;;;;5046790;28;20649;-87
2021/03/28 01:04:33;;;;;;;8.20;3.67;;;5.60;99.90;;;;;;5045654;28;20630;-85
2021/03/28 01:07:12;;;;;;;4.87;2.57;;;5.70;99.90;;;;;;5046195;28;20760;-86
2021/03/28 01:10:29;;;;;;;4.97;2.67;;;5.60;99.90;;;;;;5044574;28;20676;-86
2021/03/28 01:13:32;;;;;;;4.30;2.40;;;5.70;99.90;;;;;;5046205;28;20989;-86
2021/03/28 01:16:27;;;;;;;8.60;4.70;;;5.90;99.90;;;;;;5044720;28;20649;-87
2021/03/28 01:19:04;;;;;;;7.20;2.80;;;6.10;99.60;;;;;;5042444;28;20959;-86
2021/03/28 01:21:43;;;;;;;13.10;7.63;;;6.40;98.90;;;;;;5041622;28;21261;-86
2021/03/28 01:24:24;;;;;;;12.33;8.10;;;6.10;99.90;;;;;;5043015;28;21307;-87
2021/03/28 01:27:13;;;;;;;7.80;4.50;;;5.70;99.90;;;;;;5042178;28;21072;-87
2021/03/28 01:29:42;;;;;;;7.90;4.23;;;5.60;99.90;;;;;;5043097;28;20665;-86
2021/03/28 01:32:16;;;;;;;7.47;3.50;;;5.50;99.90;;;;;;5043076;28;20676;-87
2021/03/28 01:34:48;;;;;;;8.53;4.57;;;5.40;99.90;;;;;;5044064;28;21036;-86
2021/03/28 01:37:21;;;;;;;3.67;2.57;;;5.30;99.90;;;;;;5046166;28;20622;-86
2021/03/28 01:39:55;;;;;;;4.90;3.10;;;5.30;99.90;;;;;;5041556;28;20645;-86
2021/03/28 01:42:38;;;;;;;7.00;3.10;;;5.30;99.90;;;;;;5039474;28;20641;-87
2021/03/28 01:45:17;;;;;;;4.60;2.97;;;5.20;99.90;;;;;;5046566;28;20709;-86
2021/03/28 01:47:58;;;;;;;3.50;2.60;;;5.00;99.90;;;;;;5044304;28;20772;-86
2021/03/28 01:50:33;;;;;;;4.67;2.40;;;5.00;99.90;;;;;;5041331;28;20649;-86
2021/03/28 01:53:37;;;;;;;6.00;3.40;;;4.90;99.90;;;;;;5038766;28;20910;-86
2021/03/28 01:56:10;;;;;;;7.03;3.50;;;4.80;99.90;;;;;;5045447;28;20634;-86
2021/03/28 01:58:48;;;;;;;6.80;2.57;;;4.80;99.90;;;;;;5047478;28;20619;-86
2021/03/28 02:01:23;;;;;;;5.30;1.97;;;4.70;99.90;;;;;;5047613;28;20713;-87
2021/03/28 02:04:04;;;;;;;8.37;2.97;;;4.70;99.90;;;;;;5048248;28;20620;-87
2021/03/28 02:07:01;;;;;;;7.33;2.73;;;4.70;99.90;;;;;;5043172;28;20683;-87
2021/03/28 02:09:36;;;;;;;7.03;2.30;;;4.70;99.90;;;;;;5039292;28;20618;-86
2021/03/28 02:12:08;;;;;;;4.77;2.80;;;4.70;99.90;;;;;;5041684;28;21226;-86
2021/03/28 02:14:55;;;;;;;4.93;2.50;;;4.70;99.90;;;;;;5044126;28;21244;-86
2021/03/28 02:17:40;;;;;;;6.20;2.90;;;4.70;99.90;;;;;;5047470;28;20633;-86
2021/03/28 02:20:13;;;;;;;8.73;2.60;;;4.70;99.90;;;;;;5040353;28;20754;-86
2021/03/28 02:22:46;;;;;;;6.67;2.47;;;4.80;99.90;;;;;;5044197;28;20716;-87
2021/03/28 02:25:17;;;;;;;7.47;2.80;;;4.80;99.90;;;;;;5046799;28;21197;-86
2021/03/28 02:27:49;;;;;;;5.00;2.60;;;4.80;99.90;;;;;;5048095;28;21124;-86
2021/03/28 02:30:26;;;;;;;7.73;2.40;;;4.70;99.90;;;;;;5048571;28;20688;-86
2021/03/28 02:33:17;;;;;;;5.10;2.57;;;4.70;99.90;;;;;;5044790;28;20633;-87
2021/03/28 02:36:02;;;;;;;11.13;3.30;;;4.80;99.90;;;;;;5046505;28;21243;-87
2021/03/28 02:39:01;;;;;;;6.07;2.70;;;4.80;99.90;;;;;;5041607;28;20653;-88
2021/03/28 02:41:51;;;;;;;6.80;3.00;;;4.80;99.90;;;;;;5012014;28;20653;-87
2021/03/28 02:44:30;;;;;;;8.00;2.97;;;4.80;99.90;;;;;;5047789;28;20637;-87
2021/03/28 02:47:11;;;;;;;4.53;2.80;;;4.80;99.90;;;;;;5047448;28;20963;-86
2021/03/28 02:50:01;;;;;;;3.90;2.20;;;4.80;99.90;;;;;;5048061;28;20640;-86
2021/03/28 02:52:44;;;;;;;3.70;2.10;;;4.80;99.90;;;;;;5048488;28;20626;-87
2021/03/28 02:55:36;;;;;;;3.63;1.87;;;4.80;99.90;;;;;;5039736;28;20675;-86
2021/03/28 02:58:20;;;;;;;4.67;2.63;;;4.80;99.90;;;;;;5045742;28;21167;-87
2021/03/28 03:01:00;;;;;;;5.17;2.20;;;4.80;99.90;;;;;;5048203;28;20657;-87
2021/03/28 03:03:45;;;;;;;7.73;2.90;;;4.70;99.90;;;;;;5048339;28;20648;-88
2021/03/28 03:06:32;;;;;;;6.70;2.43;;;4.80;99.90;;;;;;5038251;28;20629;-88
2021/03/28 03:09:09;;;;;;;4.60;2.60;;;4.70;99.90;;;;;;5038599;28;20660;-88
2021/03/28 03:12:02;;;;;;;6.17;3.13;;;4.80;99.90;;;;;;5047772;28;20652;-88
2021/03/28 03:14:40;;;;;;;5.60;3.40;;;4.90;99.90;;;;;;5048442;28;20626;-89
2021/03/28 03:17:38;;;;;;;4.80;2.20;;;4.80;99.90;;;;;;5045735;28;20714;-86
2021/03/28 03:20:23;;;;;;;5.63;2.80;;;4.80;99.90;;;;;;5042441;28;20683;-87
2021/03/28 03:23:37;;;;;;;5.77;2.60;;;4.80;99.90;;;;;;5040816;28;20652;-87
2021/03/28 03:26:35;;;;;;;7.00;3.10;;;4.70;99.90;;;;;;5052343;28;20617;-88
2021/03/28 03:29:21;;;;;;;4.87;2.80;;;4.80;99.90;;;;;;5068277;28;20605;-88
2021/03/28 03:32:11;;;;;;;6.23;2.87;;;4.70;99.90;;;;;;5066521;28;20677;-89
2021/03/28 03:34:53;;;;;;;6.93;3.27;;;4.70;99.90;;;;;;5059092;28;20614;-88
2021/03/28 03:38:02;;;;;;;7.83;2.97;;;4.70;99.90;;;;;;5072122;28;20627;-88
2021/03/28 03:40:38;;;;;;;9.50;3.00;;;4.70;99.90;;;;;;4992339;28;20892;-87
2021/03/28 03:43:48;;;;;;;6.13;2.97;;;4.60;99.90;;;;;;5046134;28;20625;-87
2021/03/28 03:46:28;;;;;;;15.13;3.33;;;4.60;99.90;;;;;;5069993;28;20617;-88
2021/03/28 03:49:15;;;;;;;6.83;3.03;;;4.60;99.90;;;;;;5055313;28;21015;-87
2021/03/28 03:52:10;;;;;;;5.00;3.00;;;4.60;99.90;;;;;;5043778;28;20638;-88
2021/03/28 03:54:46;;;;;;;6.63;4.00;;;4.60;99.90;;;;;;5039077;28;20591;-88
2021/03/28 03:57:28;;;;;;;6.93;3.80;;;4.60;99.90;;;;;;5042992;28;20618;-88
2021/03/28 04:00:07;;;;;;;6.17;3.93;;;4.60;99.90;;;;;;5042418;28;20684;-87
2021/03/28 04:02:43;;;;;;;7.90;4.67;;;4.40;99.90;;;;;;5045500;28;20634;-88
2021/03/28 04:05:34;;;;;;;7.17;4.07;;;4.30;99.90;;;;;;5046018;28;20625;-87
2021/03/28 04:08:34;;;;;;;6.90;4.30;;;4.30;99.90;;;;;;5043327;28;20677;-88
2021/03/28 04:11:11;;;;;;;6.70;2.77;;;4.20;99.90;;;;;;5038825;28;20665;-87
2021/03/28 04:13:55;;;;;;;6.47;3.50;;;4.10;99.90;;;;;;5041724;28;20626;-87
2021/03/28 04:16:36;;;;;;;7.70;2.97;;;4.00;99.90;;;;;;5047401;28;20626;-88
2021/03/28 04:19:22;;;;;;;7.30;3.70;;;4.00;99.90;;;;;;5044620;28;21056;-87
2021/03/28 04:22:05;;;;;;;7.17;3.53;;;4.00;99.90;;;;;;5045663;28;20711;-88
2021/03/28 04:24:40;;;;;;;8.13;3.60;;;3.90;99.90;;;;;;5046398;28;20633;-88
2021/03/28 04:27:33;;;;;;;9.40;3.60;;;3.80;99.90;;;;;;5048010;28;20730;-88
2021/03/28 04:29:59;;;;;;;7.40;3.50;;;3.70;99.90;;;;;;5047961;28;20689;-88
2021/03/28 04:32:41;;;;;;;6.03;3.30;;;3.70;99.90;;;;;;5050776;28;20618;-88
2021/03/28 04:35:34;;;;;;;8.80;4.90;;;3.70;99.90;;;;;;5043365;28;20632;-87
2021/03/28 04:38:13;;;;;;;8.53;5.30;;;3.60;99.90;;;;;;5045629;28;20664;-87
2021/03/28 04:41:04;;;;;;;9.10;3.60;;;3.50;99.90;;;;;;5046679;28;20873;-87
2021/03/28 04:44:03;;;;;;;8.37;3.37;;;3.50;99.90;;;;;;5053761;28;20626;-89
2021/03/28 04:47:14;;;;;;;7.60;3.60;;;3.50;99.90;;;;;;5042913;28;20633;-88
2021/03/28 04:50:20;;;;;;;15.67;4.13;;;3.50;99.90;;;;;;5046821;28;20695;-88
2021/03/28 04:53:10;;;;;;;7.70;3.57;;;3.30;99.90;;;;;;5050437;28;20598;-88
2021/03/28 04:56:20;;;;;;;9.57;3.40;;;3.30;99.90;;;;;;5046864;28;20619;-88
2021/03/28 04:59:13;;;;;;;5.23;3.30;;;3.30;99.90;;;;;;5048124;28;20626;-89
2021/03/28 05:01:59;;;;;;;6.90;3.47;;;3.20;99.90;;;;;;5047421;28;21207;-88
2021/03/28 05:04:43;;;;;;;6.47;3.20;;;3.30;99.90;;;;;;5046352;28;21183;-88
2021/03/28 05:07:47;;;;;;;6.60;3.00;;;3.40;99.90;;;;;;5045916;28;20677;-88
2021/03/28 05:10:33;;;;;;;9.37;4.13;;;3.30;99.90;;;;;;5047221;28;21075;-87
2021/03/28 05:13:44;;;;;;;6.10;3.77;;;3.20;99.90;;;;;;5045723;28;20626;-88
2021/03/28 05:16:41;;;;;;;10.23;3.57;;;3.10;99.90;;;;;;5047262;28;20640;-87
2021/03/28 05:20:02;;;;;;;4.83;3.20;;;3.10;99.90;;;;;;5041047;28;20650;-87
2021/03/28 05:23:01;;;;;;;6.53;3.57;;;3.20;99.90;;;;;;5049074;28;20632;-88
2021/03/28 05:26:22;;;;;;;6.70;3.80;;;3.20;99.90;;;;;;5046956;28;20648;-87
2021/03/28 05:29:21;;;;;;;5.47;3.80;;;3.10;99.90;;;;;;5047143;28;20676;-87
2021/03/28 05:32:29;;;;;;;6.00;3.27;;;3.10;99.90;;;;;;5048810;28;20626;-88
2021/03/28 05:35:30;;;;;;;7.50;3.67;;;3.10;99.90;;;;;;5023100;28;20681;-87
2021/03/28 05:38:34;;;;;;;5.73;3.50;;;3.10;99.90;;;;;;5045609;28;20622;-88
2021/03/28 05:41:34;;;;;;;6.30;3.30;;;3.10;99.90;;;;;;5046051;28;20645;-87
2021/03/28 05:44:43;;;;;;;8.10;4.00;;;3.20;99.90;;;;;;5042323;28;20684;-88
2021/03/28 05:47:43;;;;;;;8.23;3.70;;;3.20;99.90;;;;;;5031857;28;20665;-87
2021/03/28 05:50:21;;;;;;;5.80;3.80;;;3.30;99.90;;;;;;5048819;28;20657;-88
2021/03/28 05:53:33;;;;;;;9.80;3.30;;;3.20;99.90;;;;;;5046158;28;20952;-88
2021/03/28 05:56:32;;;;;;;5.60;4.20;;;3.30;99.90;;;;;;5015414;28;20617;-87
2021/03/28 05:59:12;;;;;;;7.17;4.50;;;3.30;99.90;;;;;;5047260;28;20695;-87
2021/03/28 06:02:16;;;;;;;8.47;4.03;;;3.50;99.90;;;;;;5047712;28;20707;-89
2021/03/28 06:05:14;;;;;;;6.43;3.90;;;3.50;99.90;;;;;;5050616;28;20626;-87
2021/03/28 06:08:25;;;;;;;10.83;5.07;;;3.60;99.90;;;;;;5051427;28;20684;-88
2021/03/28 06:11:25;;;;;;;6.43;5.20;;;3.60;99.90;;;;;;5049620;28;21230;-87
2021/03/28 06:14:31;;;;;;;9.60;6.27;;;3.70;99.90;;;;;;5052114;28;20633;-88
2021/03/28 06:17:18;;;;;;;7.20;5.07;;;3.70;99.90;;;;;;5049739;28;20606;-88
2021/03/28 06:20:33;;;;;;;10.40;5.20;;;3.90;99.90;;;;;;5050148;28;20688;-88
2021/03/28 06:23:33;;;;;;;10.23;5.53;;;3.90;99.90;;;;;;5049249;28;20633;-87
2021/03/28 06:26:36;;;;;;;8.67;4.90;;;4.00;99.90;;;;;;5049773;28;20637;-89
2021/03/28 06:29:41;;;;;;;6.60;4.60;;;4.00;99.90;;;;;;5047161;28;21309;-89
2021/03/28 06:32:39;;;;;;;7.40;5.30;;;4.10;99.90;;;;;;5057360;28;20627;-88
2021/03/28 06:35:54;;;;;;;8.23;4.40;;;4.30;99.90;;;;;;5050407;28;20645;-88
2021/03/28 06:39:05;;;;;;;8.50;4.90;;;4.40;99.90;;;;;;5047298;28;20586;-88
2021/03/28 06:42:04;;;;;;;7.90;4.53;;;4.60;99.90;;;;;;5024425;28;20642;-88
2021/03/28 06:44:51;;;;;;;6.17;4.27;;;4.70;99.90;;;;;;5052537;28;20951;-90
2021/03/28 06:48:01;;;;;;;5.50;4.00;;;4.80;99.90;;;;;;5052183;28;20660;-89
2021/03/28 06:51:01;;;;;;;10.70;4.40;;;5.00;99.90;;;;;;5059164;28;20662;-89
2021/03/28 06:53:42;;;;;;;7.80;4.57;;;5.00;99.90;;;;;;5052003;28;20633;-88
2021/03/28 06:56:44;;;;;;;6.33;4.10;;;5.20;99.90;;;;;;5057442;28;20621;-88
2021/03/28 06:59:30;;;;;;;5.40;4.23;;;5.30;99.90;;;;;;5051675;28;20618;-88
2021/03/28 07:02:19;;;;;;;5.47;3.37;;;5.50;99.90;;;;;;5057009;28;21002;-89
2021/03/28 07:05:26;;;;;;;10.20;4.07;;;5.80;99.90;;;;;;5056882;28;20625;-88
2021/03/28 07:08:35;;;;;;;5.53;3.23;;;6.00;99.90;;;;;;5059606;28;20669;-88
2021/03/28 07:11:24;;;;;;;10.27;4.20;;;6.10;99.90;;;;;;5046456;28;20669;-88
2021/03/28 07:14:33;;;;;;;6.23;3.97;;;6.50;99.90;;;;;;5056565;28;20634;-90
2021/03/28 07:17:41;;;;;;;5.40;3.07;;;6.60;99.90;;;;;;5055599;28;20656;-89
2021/03/28 07:20:21;;;;;;;4.37;3.30;;;6.80;99.90;;;;;;5052512;28;20661;-89
2021/03/28 07:23:06;;;;;;;5.50;3.00;;;7.00;99.90;;;;;;5053945;28;21009;-89
2021/03/28 07:25:53;;;;;;;5.80;3.23;;;6.90;99.90;;;;;;5064292;28;20637;-88
2021/03/28 07:28:53;;;;;;;4.53;3.00;;;7.00;99.90;;;;;;5061807;28;20652;-89
2021/03/28 07:31:40;;;;;;;6.00;3.70;;;7.10;99.40;;;;;;5053077;28;20680;-89
2021/03/28 07:34:36;;;;;;;5.67;3.43;;;7.20;99.90;;;;;;5054945;28;20628;-90
2021/03/28 07:37:36;;;;;;;4.20;2.73;;;7.40;99.30;;;;;;5028417;28;20625;-88
2021/03/28 07:40:26;;;;;;;3.33;2.83;;;7.50;99.60;;;;;;5053817;28;20664;-88
2021/03/28 07:43:39;;;;;;;8.63;3.03;;;7.80;98.40;;;;;;5051109;28;20622;-88
2021/03/28 07:46:36;;;;;;;7.23;3.20;;;7.90;98.80;;;;;;5020943;28;20634;-90
2021/03/28 07:49:52;;;;;;;6.70;3.00;;;8.20;97.70;;;;;;5050271;28;20665;-89
2021/03/28 07:52:51;;;;;;;7.60;3.30;;;8.40;97.10;;;;;;5053807;28;21096;-90
2021/03/28 07:55:27;;;;;;;6.53;3.13;;;8.80;97.00;;;;;;5052415;28;20625;-88
2021/03/28 07:58:30;;;;;;;6.43;3.40;;;8.70;96.30;;;;;;5053308;28;20631;-89
2021/03/28 08:01:42;;;;;;;5.70;3.33;;;8.90;96.50;;;;;;5047655;28;20998;-89
2021/03/28 08:04:38;;;;;;;5.13;3.23;;;9.20;96.60;;;;;;5047321;28;21205;-89
2021/03/28 08:07:26;;;;;;;3.90;2.90;;;9.20;95.90;;;;;;5045681;28;20626;-88
2021/03/28 08:10:17;;;;;;;7.93;3.63;;;9.40;95.80;;;;;;5046639;28;20672;-88
2021/03/28 08:13:07;;;;;;;5.93;2.67;;;9.50;95.20;;;;;;5045676;28;20621;-88
2021/03/28 08:16:00;;;;;;;4.03;2.83;;;9.40;95.40;;;;;;5048451;28;20614;-89
2021/03/28 08:18:37;;;;;;;5.00;3.20;;;9.30;95.90;;;;;;5044381;28;20977;-88
2021/03/28 08:21:31;;;;;;;8.37;3.10;;;9.50;95.20;;;;;;5045696;28;20657;-88
2021/03/28 08:24:47;;;;;;;6.80;3.40;;;9.40;95.30;;;;;;5032503;28;20630;-89
2021/03/28 08:27:30;;;;;;;9.20;3.07;;;9.50;95.40;;;;;;4967765;28;21116;-90
2021/03/28 08:30:15;;;;;;;5.50;2.67;;;9.50;95.40;;;;;;5036888;28;20650;-88
2021/03/28 08:33:13;;;;;;;4.73;2.80;;;9.50;95.70;;;;;;5049956;28;20828;-90
2021/03/28 08:35:53;;;;;;;5.37;2.80;;;9.40;95.90;;;;;;5015270;28;21555;-89
2021/03/28 08:38:48;;;;;;;4.87;3.80;;;9.60;95.50;;;;;;5049655;28;20645;-90
2021/03/28 08:41:47;;;;;;;7.70;3.10;;;9.80;95.80;;;;;;5044768;28;21121;-87
2021/03/28 08:44:45;;;;;;;6.03;3.53;;;10.20;94.30;;;;;;5047502;28;20633;-89
2021/03/28 08:47:28;;;;;;;7.57;2.37;;;10.50;94.30;;;;;;5042527;28;20645;-90
2021/03/28 08:49:59;;;;;;;5.10;2.43;;;10.70;93.70;;;;;;5045313;28;20676;-89
2021/03/28 08:52:56;;;;;;;6.00;2.90;;;11.00;93.50;;;;;;5043077;28;20613;-89
2021/03/28 08:56:04;;;;;;;5.17;2.40;;;11.30;92.60;;;;;;5036882;28;20725;-89
2021/03/28 08:58:35;;;;;;;5.83;2.80;;;11.30;92.30;;;;;;5043611;28;20633;-90
2021/03/28 09:01:06;;;;;;;5.00;2.67;;;11.50;92.30;;;;;;5040626;28;20657;-89
2021/03/28 09:03:57;;;;;;;5.43;2.13;;;11.70;92.00;;;;;;5046830;28;20579;-91
2021/03/28 09:06:44;;;;;;;7.47;2.87;;;11.70;91.60;;;;;;5044404;28;20673;-90
2021/03/28 09:09:22;;;;;;;6.30;2.27;;;11.70;91.60;;;;;;5047081;28;20748;-89
2021/03/28 09:12:00;;;;;;;4.93;2.33;;;12.10;91.60;;;;;;5050393;28;20721;-90
2021/03/28 09:15:04;;;;;;;7.70;2.83;;;11.90;91.70;;;;;;5050998;28;20605;-90
2021/03/28 09:17:40;;;;;;;6.60;2.63;;;11.90;91.50;;;;;;5036708;28;20678;-89
2021/03/28 09:20:24;;;;;;;5.33;2.80;;;12.10;91.40;;;;;;5043001;28;20670;-89
2021/03/28 09:23:01;;;;;;;7.73;2.50;;;12.20;91.40;;;;;;5036021;28;20645;-90
2021/03/28 09:25:36;;;;;;;5.13;2.60;;;12.50;90.10;;;;;;5039496;28;20663;-90
2021/03/28 09:28:15;;;;;;;6.07;2.33;;;12.40;88.40;;;;;;5048606;28;20969;-90
2021/03/28 09:30:55;;;;;;;3.43;2.53;;;12.60;88.70;;;;;;5049740;28;20663;-89
2021/03/28 09:33:50;;;;;;;8.87;2.67;;;12.40;88.20;;;;;;5044429;28;21455;-90
2021/03/28 09:36:43;;;;;;;5.43;1.73;;;12.50;87.90;;;;;;5047176;28;20626;-89
2021/03/28 09:40:03;;;;;;;3.33;1.47;;;12.90;85.80;;;;;;5044557;28;20652;-89
2021/03/28 09:42:46;;;;;;;5.23;1.77;;;13.20;84.00;;;;;;5043664;28;20618;-90
2021/03/28 09:45:54;;;;;;;6.07;2.03;;;13.60;84.90;;;;;;5046136;28;20657;-89
2021/03/28 09:48:48;;;;;;;3.37;1.20;;;13.80;80.90;;;;;;5046396;28;20985;-90
2021/03/28 09:51:46;;;;;;;2.67;1.33;;;13.50;66.00;;;;;;5046869;28;20654;-90
2021/03/28 09:54:39;;;;;;;4.60;1.90;;;13.70;66.70;;;;;;5049045;28;20648;-90
2021/03/28 09:57:35;;;;;;;4.27;1.60;;;13.80;68.00;;;;;;5048607;28;21065;-88
2021/03/28 10:00:50;;;;;;;2.20;1.33;;;13.70;63.60;;;;;;5047248;28;20663;-88
2021/03/28 10:03:23;;;;;;;2.70;1.47;;;13.90;63.90;;;;;;5037196;28;20791;-88
2021/03/28 10:06:10;;;;;;;5.83;2.07;;;13.70;65.80;;;;;;5041279;28;20680;-88
2021/03/28 10:08:43;;;;;;;3.30;1.80;;;13.90;67.30;;;;;;5040972;28;20681;-89
2021/03/28 10:11:42;;;;;;;4.50;2.00;;;13.90;67.80;;;;;;5047760;28;20645;-89
2021/03/28 10:14:25;;;;;;;3.03;1.87;;;14.30;69.20;;;;;;5040335;28;20833;-88
2021/03/28 10:17:19;;;;;;;6.13;1.70;;;14.30;69.70;;;;;;5051971;28;20618;-88
2021/03/28 10:19:48;;;;;;;3.83;1.80;;;14.20;68.00;;;;;;5043501;28;21031;-88
2021/03/28 10:22:31;;;;;;;4.70;1.70;;;14.40;66.10;;;;;;5048835;28;20681;-89
2021/03/28 10:25:28;;;;;;;4.40;1.20;;;14.70;65.50;;;;;;5045220;28;21196;-88
2021/03/28 10:28:33;;;;;;;2.07;1.17;;;15.00;65.80;;;;;;5048934;28;21199;-89
2021/03/28 10:31:20;;;;;;;4.53;1.60;;;15.40;63.50;;;;;;5039565;28;20658;-89
2021/03/28 10:34:05;;;;;;;3.30;1.40;;;15.50;62.10;;;;;;5044469;28;20637;-89
2021/03/28 10:36:45;;;;;;;3.07;1.30;;;15.40;63.90;;;;;;5047299;28;21177;-88
2021/03/28 10:39:22;;;;;;;4.20;1.80;;;15.80;62.80;;;;;;5046109;28;20610;-88
2021/03/28 10:42:08;;;;;;;5.97;1.47;;;15.60;61.80;;;;;;5050913;28;20622;-88
2021/03/28 10:45:04;;;;;;;2.10;1.60;;;15.50;61.40;;;;;;5045897;28;20622;-87
2021/03/28 10:48:13;;;;;;;3.70;1.53;;;15.70;60.60;;;;;;5045970;28;20716;-89
2021/03/28 10:51:21;;;;;;;2.97;1.70;;;15.80;59.30;;;;;;5045671;28;21001;-90
2021/03/28 10:54:31;;;;;;;4.70;1.60;;;15.90;59.80;;;;;;5047455;28;20737;-89
2021/03/28 10:57:44;;;;;;;5.00;2.20;;;16.30;58.70;;;;;;4993013;28;20637;-89
2021/03/28 11:00:52;;;;;;;2.53;1.60;;;16.30;57.70;;;;;;5026405;28;21043;-88
2021/03/28 11:03:58;;;;;;;1.37;1.10;;;16.30;56.30;;;;;;5032536;28;20735;-90
2021/03/28 11:06:57;;;;;;;3.63;1.83;;;16.70;55.00;;;;;;5050182;28;20620;-89
2021/03/28 11:09:50;;;;;;;4.47;1.50;;;16.30;54.70;;;;;;5066753;28;21085;-89
2021/03/28 11:12:50;;;;;;;4.20;1.53;;;16.60;54.50;;;;;;5065762;28;20997;-88
2021/03/28 11:15:39;;;;;;;4.67;1.10;;;16.30;54.90;;;;;;5065248;28;20641;-90
2021/03/28 11:18:33;;;;;;;2.50;1.27;;;16.80;54.90;;;;;;5067192;28;20625;-88
2021/03/28 11:21:05;;;;;;;2.80;1.47;;;16.80;53.50;;;;;;5054397;28;20664;-87
2021/03/28 11:24:10;;;;;;;3.43;1.30;;;17.00;53.40;;;;;;5081509;28;20648;-87
2021/03/28 11:27:10;;;;;;;3.20;1.40;;;17.50;52.50;;;;;;5073904;28;20583;-88
2021/03/28 11:30:13;;;;;;;5.30;1.90;;;17.20;52.10;;;;;;5065242;28;21305;-90
2021/03/28 11:33:15;;;;;;;3.00;1.57;;;17.20;52.00;;;;;;5068301;28;20598;-88
2021/03/28 11:36:02;;;;;;;3.40;1.60;;;17.10;51.80;;;;;;5061114;28;20689;-89
2021/03/28 11:38:40;;;;;;;4.90;1.83;;;17.30;52.30;;;;;;5066794;28;20617;-89
2021/03/28 11:41:36;;;;;;;1.50;1.40;;;17.70;50.50;;;;;;5067195;28;20673;-89
2021/03/28 11:44:16;;;;;;;3.47;1.60;;;17.60;50.40;;;;;;5062216;28;20817;-88
2021/03/28 11:46:56;;;;;;;6.23;1.40;;;17.70;50.90;;;;;;5067231;28;20593;-89
2021/03/28 11:49:28;;;;;;;4.33;1.60;;;18.00;49.90;;;;;;5066954;28;20657;-89
2021/03/28 11:52:22;;;;;;;2.43;1.10;;;18.10;50.30;;;;;;5068559;28;20660;-89
2021/03/28 11:55:15;;;;;;;2.07;1.20;;;18.80;49.50;;;;;;5069305;28;20732;-88
2021/03/28 11:57:43;;;;;;;3.30;1.53;;;19.00;48.30;;;;;;5062871;28;20972;-88
2021/03/28 12:00:35;;;;;;;4.27;1.60;;;19.20;47.20;;;;;;5069938;28;20642;-87
2021/03/28 12:03:35;;;;;;;3.90;2.07;;;18.80;47.70;;;;;;5062225;28;20656;-87
2021/03/28 12:06:34;;;;;;;5.57;1.93;;;18.60;47.60;;;;;;5057390;28;20638;-88
2021/03/28 12:09:03;;;;;;;4.57;1.33;;;18.70;47.60;;;;;;5061891;28;20693;-86
2021/03/28 12:11:36;;;;;;;4.10;1.60;;;18.60;48.20;;;;;;5070992;28;21220;-88
2021/03/28 12:14:35;;;;;;;3.07;1.60;;;19.50;47.90;;;;;;5071557;28;20613;-88
2021/03/28 12:17:24;;;;;;;4.57;1.97;;;18.90;47.00;;;;;;5067313;28;20693;-88
2021/03/28 12:20:04;;;;;;;2.30;1.87;;;19.30;47.00;;;;;;5067334;28;20701;-87
2021/03/28 12:22:44;;;;;;;2.90;1.87;;;19.30;48.30;;;;;;5063709;28;20610;-89
2021/03/28 12:25:23;;;;;;;5.47;3.37;;;19.50;47.90;;;;;;5064609;28;20957;-88
2021/03/28 12:28:29;;;;;;;2.80;2.23;;;19.60;46.80;;;;;;5065399;28;20713;-89
2021/03/28 12:31:17;;;;;;;3.23;1.80;;;20.00;46.60;;;;;;5065330;28;20664;-88
2021/03/28 12:33:55;;;;;;;2.80;1.60;;;19.90;45.80;;;;;;5060937;28;20645;-87
2021/03/28 12:36:23;;;;;;;4.23;2.00;;;19.90;46.00;;;;;;5064784;28;20618;-89
2021/03/28 12:38:57;;;;;;;4.10;1.90;;;19.60;46.20;;;;;;5066563;28;20634;-88
2021/03/28 12:41:32;;;;;;;3.57;1.70;;;20.20;46.50;;;;;;5063087;28;20641;-88
2021/03/28 12:44:15;;;;;;;5.87;1.73;;;20.40;46.40;;;;;;5069795;28;20694;-88
2021/03/28 12:47:00;;;;;;;4.37;2.00;;;21.00;45.40;;;;;;5070266;28;20679;-89
2021/03/28 12:49:42;;;;;;;6.57;2.53;;;20.50;45.60;;;;;;5064194;28;20658;-88
2021/03/28 12:52:20;;;;;;;3.10;2.07;;;21.10;45.50;;;;;;5066511;28;20625;-88
2021/03/28 12:55:32;;;;;;;3.03;2.00;;;21.40;43.90;;;;;;5059143;28;20697;-91
2021/03/28 12:58:18;;;;;;;2.20;1.70;;;21.50;42.70;;;;;;5013773;28;20615;-89
2021/03/28 13:00:50;;;;;;;3.30;1.57;;;21.80;42.30;;;;;;5060081;28;20752;-89
2021/03/28 13:03:33;;;;;;;3.60;1.70;;;21.70;42.10;;;;;;5065006;28;20974;-88
2021/03/28 13:06:38;;;;;;;4.23;2.10;;;21.80;41.70;;;;;;5064232;28;20619;-91
2021/03/28 13:09:26;;;;;;;3.83;1.87;;;21.50;42.20;;;;;;5060627;28;20641;-89
2021/03/28 13:11:58;;;;;;;3.40;1.97;;;21.90;41.70;;;;;;5064008;28;20626;-90
2021/03/28 13:14:36;;;;;;;4.70;2.10;;;21.90;41.90;;;;;;5062883;28;20627;-88
2021/03/28 13:17:06;;;;;;;5.37;2.13;;;22.20;42.20;;;;;;5055206;28;20630;-90
2021/03/28 13:19:39;;;;;;;4.80;2.20;;;22.20;41.20;;;;;;5060310;28;20653;-88
2021/03/28 13:22:28;;;;;;;2.70;1.40;;;22.50;40.70;;;;;;5058406;28;20694;-89
2021/03/28 13:25:18;;;;;;;2.80;1.47;;;22.50;40.10;;;;;;5058840;28;20622;-89
2021/03/28 13:27:45;;;;;;;2.40;1.67;;;22.80;40.00;;;;;;5044077;28;20666;-90
2021/03/28 13:30:22;;;;;;;2.40;1.53;;;22.90;39.70;;;;;;5043498;28;20642;-89
2021/03/28 13:32:51;;;;;;;3.67;1.70;;;23.10;39.10;;;;;;5036238;28;20647;-90
2021/03/28 13:35:28;;;;;;;4.40;1.70;;;23.10;38.80;;;;;;5043370;28;20626;-90
2021/03/28 13:37:57;;;;;;;7.30;2.30;;;22.80;38.50;;;;;;5038315;28;20722;-90
2021/03/28 13:40:31;;;;;;;2.30;1.83;;;22.50;38.10;;;;;;5051077;28;20656;-90
2021/03/28 13:43:01;;;;;;;3.83;2.73;;;22.70;38.30;;;;;;5038945;28;20601;-89
2021/03/28 13:45:32;;;;;;;3.37;2.47;;;22.90;37.70;;;;;;5036903;28;20968;-89
2021/03/28 13:48:20;;;;;;;3.97;2.67;;;23.00;38.20;;;;;;5030159;28;20666;-89
2021/03/28 13:50:54;;;;;;;3.70;1.50;;;22.40;38.00;;;;;;5043992;28;20678;-89
2021/03/28 13:53:25;;;;;;;7.03;2.53;;;22.90;38.30;;;;;;5040762;28;20630;-90
2021/03/28 13:56:04;;;;;;;3.33;2.40;;;23.10;37.70;;;;;;5045763;28;20680;-90
2021/03/28 13:58:35;;;;;;;5.00;2.77;;;23.10;37.90;;;;;;5037041;28;20614;-90
2021/03/28 14:01:14;;;;;;;3.10;1.70;;;22.30;38.00;;;;;;5044352;28;20655;-89
2021/03/28 14:03:43;;;;;;;1.97;1.83;;;22.60;38.80;;;;;;5044412;28;20633;-91
2021/03/28 14:06:25;;;;;;;3.80;1.73;;;22.50;37.90;;;;;;5045922;28;20645;-90
2021/03/28 14:08:54;;;;;;;2.20;1.40;;;23.00;37.80;;;;;;5048113;28;20675;-89
2021/03/28 14:11:25;;;;;;;10.27;9.30;;;23.60;37.70;;;;;;5050335;28;20658;-91
2021/03/28 14:14:06;;;;;;;6.27;2.53;;;24.30;37.00;;;;;;5051557;28;21195;-91
2021/03/28 14:16:41;;;;;;;3.00;1.57;;;23.40;36.50;;;;;;5050526;28;20637;-89
2021/03/28 14:19:11;;;;;;;2.30;1.83;;;23.10;36.90;;;;;;5044173;28;20676;-89
2021/03/28 14:21:40;;;;;;;2.60;1.50;;;23.40;36.80;;;;;;5042542;28;20583;-90
2021/03/28 14:24:25;;;;;;;2.13;1.50;;;23.60;37.30;;;;;;5045952;28;20613;-90
2021/03/28 14:26:59;;;;;;;3.77;1.80;;;23.70;36.20;;;;;;5050330;28;21189;-89
2021/03/28 14:29:32;;;;;;;4.80;3.80;;;23.70;36.70;;;;;;5043806;28;21118;-91
2021/03/28 14:32:05;;;;;;;6.17;3.70;;;23.70;36.30;;;;;;5049414;28;20629;-90
2021/03/28 14:35:00;;;;;;;2.83;1.43;;;23.70;35.80;;;;;;5050828;28;20628;-90
2021/03/28 14:38:01;;;;;;;5.37;4.87;;;24.00;36.00;;;;;;5049632;28;20622;-89
2021/03/28 14:40:47;;;;;;;3.10;1.90;;;23.60;35.70;;;;;;5051286;28;20646;-89